sensor_id;sensor_type;location;lat;lon;timestamp;P1;durP1;ratioP1;P2;durP2;ratioP2
21472;SDS011;10898;48.072;11.682;2023-11-18T00:01:55;5.95;;;5.35;;
21472;SDS011;10898;48.072;11.682;2023-11-18T00:03:56;6.05;;;5.30;;
21472;SDS011;10898;48.072;11.682;2023-11-18T00:05:58;7.75;;;6.68;;
21472;SDS011;10898;48.072;11.682;2023-11-18T00:08:01;6.70;;;5.78;;
21472;SDS011;10898;48.072;11.682;2023-11-18T00:10:03;7.07;;;5.88;;
21472;SDS011;10898;48.072;11.682;2023-11-18T00:12:06;7.07;;;5.40;;
21472;SDS011;10898;48.072;11.682;2023-11-18T00:14:09;6.43;;;5.47;;
21472;SDS011;10898;48.072;11.682;2023-11-18T00:16:12;6.57;;;5.70;;
21472;SDS011;10898;48.072;11.682;2023-11-18T00:18:14;7.78;;;6.47;;
21472;SDS011;10898;48.072;11.682;2023-11-18T00:20:17;6.25;;;5.53;;
21472;SDS011;10898;48.072;11.682;2023-11-18T00:22:19;7.60;;;5.70;;
21472;SDS011;10898;48.072;11.682;2023-11-18T00:24:21;6.17;;;5.57;;
21472;SDS011;10898;48.072;11.682;2023-11-18T00:26:23;8.20;;;5.55;;
21472;SDS011;10898;48.072;11.682;2023-11-18T00:28:27;6.13;;;5.30;;
21472;SDS011;10898;48.072;11.682;2023-11-18T00:30:29;6.65;;;5.35;;
21472;SDS011;10898;48.072;11.682;2023-11-18T00:32:31;6.68;;;6.03;;
21472;SDS011;10898;48.072;11.682;2023-11-18T00:34:33;5.35;;;4.85;;
21472;SDS011;10898;48.072;11.682;2023-11-18T00:36:35;5.88;;;5.28;;
21472;SDS011;10898;48.072;11.682;2023-11-18T00:38:37;4.57;;;4.10;;
21472;SDS011;10898;48.072;11.682;2023-11-18T00:40:39;5.30;;;4.80;;
21472;SDS011;10898;48.072;11.682;2023-11-18T00:42:41;5.45;;;4.95;;
21472;SDS011;10898;48.072;11.682;2023-11-18T00:44:42;5.13;;;4.40;;
21472;SDS011;10898;48.072;11.682;2023-11-18T00:46:44;5.30;;;4.80;;
21472;SDS011;10898;48.072;11.682;2023-11-18T00:48:46;6.03;;;5.43;;
21472;SDS011;10898;48.072;11.682;2023-11-18T00:50:48;4.70;;;4.20;;
21472;SDS011;10898;48.072;11.682;2023-11-18T00:52:50;4.97;;;4.47;;
21472;SDS011;10898;48.072;11.682;2023-11-18T00:54:55;4.40;;;4.00;;
21472;SDS011;10898;48.072;11.682;2023-11-18T00:56:57;4.53;;;4.13;;
21472;SDS011;10898;48.072;11.682;2023-11-18T00:58:59;4.82;;;4.32;;
21472;SDS011;10898;48.072;11.682;2023-11-18T01:01:04;6.03;;;4.75;;
21472;SDS011;10898;48.072;11.682;2023-11-18T01:03:08;5.15;;;4.65;;
21472;SDS011;10898;48.072;11.682;2023-11-18T01:05:11;5.38;;;4.40;;
21472;SDS011;10898;48.072;11.682;2023-11-18T01:07:14;4.78;;;4.32;;
21472;SDS011;10898;48.072;11.682;2023-11-18T01:09:16;4.43;;;4.03;;
21472;SDS011;10898;48.072;11.682;2023-11-18T01:11:18;4.17;;;3.77;;
21472;SDS011;10898;48.072;11.682;2023-11-18T01:15:22;4.32;;;3.92;;
21472;SDS011;10898;48.072;11.682;2023-11-18T01:17:24;4.95;;;3.60;;
21472;SDS011;10898;48.072;11.682;2023-11-18T01:19:26;3.65;;;3.33;;
21472;SDS011;10898;48.072;11.682;2023-11-18T01:21:28;3.92;;;3.58;;
21472;SDS011;10898;48.072;11.682;2023-11-18T01:23:29;3.87;;;3.50;;
21472;SDS011;10898;48.072;11.682;2023-11-18T01:25:31;3.63;;;3.33;;
21472;SDS011;10898;48.072;11.682;2023-11-18T01:27:33;4.20;;;3.88;;
21472;SDS011;10898;48.072;11.682;2023-11-18T01:29:35;3.55;;;3.25;;
21472;SDS011;10898;48.072;11.682;2023-11-18T01:31:37;3.60;;;3.30;;
21472;SDS011;10898;48.072;11.682;2023-11-18T01:33:52;3.20;;;2.97;;
21472;SDS011;10898;48.072;11.682;2023-11-18T01:35:58;3.35;;;3.05;;
21472;SDS011;10898;48.072;11.682;2023-11-18T01:38:00;3.40;;;2.95;;
21472;SDS011;10898;48.072;11.682;2023-11-18T01:40:02;3.97;;;3.58;;
21472;SDS011;10898;48.072;11.682;2023-11-18T01:42:08;3.35;;;3.03;;
21472;SDS011;10898;48.072;11.682;2023-11-18T01:44:10;2.97;;;2.77;;
21472;SDS011;10898;48.072;11.682;2023-11-18T01:46:15;3.17;;;2.80;;
21472;SDS011;10898;48.072;11.682;2023-11-18T01:48:22;2.55;;;2.35;;
21472;SDS011;10898;48.072;11.682;2023-11-18T01:50:24;2.35;;;2.20;;
21472;SDS011;10898;48.072;11.682;2023-11-18T01:52:27;3.33;;;3.05;;
21472;SDS011;10898;48.072;11.682;2023-11-18T01:54:31;2.88;;;2.67;;
21472;SDS011;10898;48.072;11.682;2023-11-18T01:56:33;2.70;;;2.50;;
21472;SDS011;10898;48.072;11.682;2023-11-18T01:58:35;2.40;;;2.20;;
21472;SDS011;10898;48.072;11.682;2023-11-18T02:00:39;2.47;;;2.33;;
21472;SDS011;10898;48.072;11.682;2023-11-18T02:02:47;2.90;;;2.70;;
21472;SDS011;10898;48.072;11.682;2023-11-18T02:04:49;3.25;;;3.05;;
21472;SDS011;10898;48.072;11.682;2023-11-18T02:06:51;2.60;;;2.42;;
21472;SDS011;10898;48.072;11.682;2023-11-18T02:08:54;2.60;;;2.40;;
21472;SDS011;10898;48.072;11.682;2023-11-18T02:13:06;2.50;;;2.35;;
21472;SDS011;10898;48.072;11.682;2023-11-18T02:15:15;2.17;;;2.08;;
21472;SDS011;10898;48.072;11.682;2023-11-18T02:17:20;2.15;;;2.05;;
21472;SDS011;10898;48.072;11.682;2023-11-18T02:19:25;2.72;;;2.53;;
21472;SDS011;10898;48.072;11.682;2023-11-18T02:21:28;1.90;;;1.80;;
21472;SDS011;10898;48.072;11.682;2023-11-18T02:23:34;2.67;;;2.47;;
21472;SDS011;10898;48.072;11.682;2023-11-18T02:25:41;2.42;;;2.22;;
21472;SDS011;10898;48.072;11.682;2023-11-18T02:27:47;2.60;;;2.40;;
21472;SDS011;10898;48.072;11.682;2023-11-18T02:29:49;2.60;;;2.20;;
21472;SDS011;10898;48.072;11.682;2023-11-18T02:31:52;2.47;;;2.33;;
21472;SDS011;10898;48.072;11.682;2023-11-18T02:34:05;2.60;;;2.40;;
21472;SDS011;10898;48.072;11.682;2023-11-18T02:36:14;2.58;;;2.30;;
21472;SDS011;10898;48.072;11.682;2023-11-18T02:38:29;2.47;;;2.30;;
21472;SDS011;10898;48.072;11.682;2023-11-18T02:40:39;2.28;;;2.13;;
21472;SDS011;10898;48.072;11.682;2023-11-18T02:42:45;2.40;;;2.20;;
21472;SDS011;10898;48.072;11.682;2023-11-18T02:44:50;1.92;;;1.83;;
21472;SDS011;10898;48.072;11.682;2023-11-18T02:47:00;2.65;;;2.45;;
21472;SDS011;10898;48.072;11.682;2023-11-18T02:49:03;2.72;;;2.53;;
21472;SDS011;10898;48.072;11.682;2023-11-18T02:53:09;2.50;;;2.30;;
21472;SDS011;10898;48.072;11.682;2023-11-18T02:55:11;2.15;;;2.05;;
21472;SDS011;10898;48.072;11.682;2023-11-18T02:57:12;2.50;;;2.30;;
21472;SDS011;10898;48.072;11.682;2023-11-18T02:59:18;2.42;;;2.30;;
21472;SDS011;10898;48.072;11.682;2023-11-18T03:01:19;2.60;;;2.40;;
21472;SDS011;10898;48.072;11.682;2023-11-18T03:03:21;2.92;;;2.67;;
21472;SDS011;10898;48.072;11.682;2023-11-18T03:05:23;2.40;;;2.28;;
21472;SDS011;10898;48.072;11.682;2023-11-18T03:07:27;2.35;;;2.22;;
21472;SDS011;10898;48.072;11.682;2023-11-18T03:09:29;2.20;;;2.10;;
21472;SDS011;10898;48.072;11.682;2023-11-18T03:11:31;2.65;;;2.45;;
21472;SDS011;10898;48.072;11.682;2023-11-18T03:13:34;2.38;;;2.17;;
21472;SDS011;10898;48.072;11.682;2023-11-18T03:17:39;2.45;;;2.30;;
21472;SDS011;10898;48.072;11.682;2023-11-18T03:19:41;2.47;;;2.38;;
21472;SDS011;10898;48.072;11.682;2023-11-18T03:21:43;2.88;;;2.67;;
21472;SDS011;10898;48.072;11.682;2023-11-18T03:23:44;2.40;;;2.03;;
21472;SDS011;10898;48.072;11.682;2023-11-18T03:25:47;2.10;;;1.95;;
21472;SDS011;10898;48.072;11.682;2023-11-18T03:27:49;2.67;;;2.47;;
21472;SDS011;10898;48.072;11.682;2023-11-18T03:29:50;2.23;;;2.10;;
21472;SDS011;10898;48.072;11.682;2023-11-18T03:31:54;3.33;;;2.70;;
21472;SDS011;10898;48.072;11.682;2023-11-18T03:33:55;2.78;;;2.33;;
21472;SDS011;10898;48.072;11.682;2023-11-18T03:35:57;2.73;;;2.30;;
21472;SDS011;10898;48.072;11.682;2023-11-18T03:37:59;3.42;;;3.13;;
21472;SDS011;10898;48.072;11.682;2023-11-18T03:40:01;2.70;;;2.50;;
21472;SDS011;10898;48.072;11.682;2023-11-18T03:42:03;2.53;;;2.40;;
21472;SDS011;10898;48.072;11.682;2023-11-18T03:44:05;3.00;;;2.70;;
21472;SDS011;10898;48.072;11.682;2023-11-18T03:46:07;2.90;;;2.70;;
21472;SDS011;10898;48.072;11.682;2023-11-18T03:48:08;2.85;;;2.65;;
21472;SDS011;10898;48.072;11.682;2023-11-18T03:50:15;2.80;;;2.50;;
21472;SDS011;10898;48.072;11.682;2023-11-18T03:52:18;2.55;;;2.35;;
21472;SDS011;10898;48.072;11.682;2023-11-18T03:54:20;2.80;;;2.60;;
21472;SDS011;10898;48.072;11.682;2023-11-18T03:56:21;2.63;;;2.43;;
21472;SDS011;10898;48.072;11.682;2023-11-18T03:58:23;2.27;;;2.10;;
21472;SDS011;10898;48.072;11.682;2023-11-18T04:00:25;2.97;;;2.77;;
21472;SDS011;10898;48.072;11.682;2023-11-18T04:02:31;2.72;;;2.53;;
21472;SDS011;10898;48.072;11.682;2023-11-18T04:04:34;2.53;;;2.33;;
21472;SDS011;10898;48.072;11.682;2023-11-18T04:06:35;2.17;;;2.05;;
21472;SDS011;10898;48.072;11.682;2023-11-18T04:08:37;2.92;;;2.70;;
21472;SDS011;10898;48.072;11.682;2023-11-18T04:10:39;2.88;;;2.65;;
21472;SDS011;10898;48.072;11.682;2023-11-18T04:12:41;2.50;;;2.30;;
21472;SDS011;10898;48.072;11.682;2023-11-18T04:14:47;2.78;;;2.58;;
21472;SDS011;10898;48.072;11.682;2023-11-18T04:16:49;3.30;;;3.10;;
21472;SDS011;10898;48.072;11.682;2023-11-18T04:18:51;3.10;;;2.80;;
21472;SDS011;10898;48.072;11.682;2023-11-18T04:20:53;3.25;;;2.95;;
21472;SDS011;10898;48.072;11.682;2023-11-18T04:22:55;3.05;;;2.83;;
21472;SDS011;10898;48.072;11.682;2023-11-18T04:24:56;4.83;;;2.93;;
21472;SDS011;10898;48.072;11.682;2023-11-18T04:26:58;3.00;;;2.80;;
21472;SDS011;10898;48.072;11.682;2023-11-18T04:29:00;3.20;;;2.95;;
21472;SDS011;10898;48.072;11.682;2023-11-18T04:31:02;2.70;;;2.50;;
21472;SDS011;10898;48.072;11.682;2023-11-18T04:33:04;3.50;;;3.20;;
21472;SDS011;10898;48.072;11.682;2023-11-18T04:35:06;3.20;;;2.90;;
21472;SDS011;10898;48.072;11.682;2023-11-18T04:37:08;2.83;;;2.63;;
21472;SDS011;10898;48.072;11.682;2023-11-18T04:39:11;3.22;;;2.92;;
21472;SDS011;10898;48.072;11.682;2023-11-18T04:41:13;3.30;;;2.83;;
21472;SDS011;10898;48.072;11.682;2023-11-18T04:43:15;3.38;;;3.08;;
21472;SDS011;10898;48.072;11.682;2023-11-18T04:45:23;3.50;;;3.20;;
21472;SDS011;10898;48.072;11.682;2023-11-18T04:47:25;3.70;;;2.77;;
21472;SDS011;10898;48.072;11.682;2023-11-18T04:49:28;3.53;;;2.92;;
21472;SDS011;10898;48.072;11.682;2023-11-18T04:51:30;3.43;;;3.13;;
21472;SDS011;10898;48.072;11.682;2023-11-18T04:53:31;3.53;;;3.23;;
21472;SDS011;10898;48.072;11.682;2023-11-18T04:55:34;3.78;;;3.47;;
21472;SDS011;10898;48.072;11.682;2023-11-18T04:57:36;3.00;;;2.80;;
21472;SDS011;10898;48.072;11.682;2023-11-18T04:59:41;3.60;;;3.30;;
21472;SDS011;10898;48.072;11.682;2023-11-18T05:01:44;4.00;;;3.22;;
21472;SDS011;10898;48.072;11.682;2023-11-18T05:03:46;2.95;;;2.75;;
21472;SDS011;10898;48.072;11.682;2023-11-18T05:05:48;3.47;;;3.10;;
21472;SDS011;10898;48.072;11.682;2023-11-18T05:07:51;3.38;;;3.13;;
21472;SDS011;10898;48.072;11.682;2023-11-18T05:09:53;4.15;;;3.75;;
21472;SDS011;10898;48.072;11.682;2023-11-18T05:13:58;3.28;;;2.70;;
21472;SDS011;10898;48.072;11.682;2023-11-18T05:16:00;3.45;;;3.03;;
21472;SDS011;10898;48.072;11.682;2023-11-18T05:18:02;3.38;;;3.08;;
21472;SDS011;10898;48.072;11.682;2023-11-18T05:20:04;4.80;;;2.92;;
21472;SDS011;10898;48.072;11.682;2023-11-18T05:22:10;3.05;;;2.65;;
21472;SDS011;10898;48.072;11.682;2023-11-18T05:24:11;3.00;;;2.70;;
21472;SDS011;10898;48.072;11.682;2023-11-18T05:26:14;3.20;;;2.97;;
21472;SDS011;10898;48.072;11.682;2023-11-18T05:28:16;4.00;;;3.55;;
21472;SDS011;10898;48.072;11.682;2023-11-18T05:30:17;3.45;;;3.15;;
21472;SDS011;10898;48.072;11.682;2023-11-18T05:32:22;3.33;;;3.03;;
21472;SDS011;10898;48.072;11.682;2023-11-18T05:34:24;3.05;;;2.75;;
21472;SDS011;10898;48.072;11.682;2023-11-18T05:36:26;2.90;;;2.70;;
21472;SDS011;10898;48.072;11.682;2023-11-18T05:38:29;3.25;;;2.95;;
21472;SDS011;10898;48.072;11.682;2023-11-18T05:40:35;3.10;;;2.67;;
21472;SDS011;10898;48.072;11.682;2023-11-18T05:42:40;3.58;;;3.28;;
21472;SDS011;10898;48.072;11.682;2023-11-18T05:46:48;3.20;;;2.90;;
21472;SDS011;10898;48.072;11.682;2023-11-18T05:48:53;3.83;;;3.42;;
21472;SDS011;10898;48.072;11.682;2023-11-18T05:50:55;3.00;;;2.75;;
21472;SDS011;10898;48.072;11.682;2023-11-18T05:52:56;2.87;;;2.67;;
21472;SDS011;10898;48.072;11.682;2023-11-18T05:54:58;3.47;;;3.17;;
21472;SDS011;10898;48.072;11.682;2023-11-18T05:57:00;3.97;;;3.65;;
21472;SDS011;10898;48.072;11.682;2023-11-18T05:59:02;3.78;;;3.40;;
21472;SDS011;10898;48.072;11.682;2023-11-18T06:01:04;3.70;;;3.40;;
21472;SDS011;10898;48.072;11.682;2023-11-18T06:03:09;3.95;;;3.58;;
21472;SDS011;10898;48.072;11.682;2023-11-18T06:05:12;4.53;;;4.13;;
21472;SDS011;10898;48.072;11.682;2023-11-18T06:07:14;3.63;;;3.33;;
21472;SDS011;10898;48.072;11.682;2023-11-18T06:09:16;3.80;;;3.50;;
21472;SDS011;10898;48.072;11.682;2023-11-18T06:11:22;3.50;;;3.20;;
21472;SDS011;10898;48.072;11.682;2023-11-18T06:13:24;4.00;;;3.50;;
21472;SDS011;10898;48.072;11.682;2023-11-18T06:15:28;3.33;;;3.03;;
21472;SDS011;10898;48.072;11.682;2023-11-18T06:17:30;3.93;;;3.60;;
21472;SDS011;10898;48.072;11.682;2023-11-18T06:19:32;3.83;;;3.45;;
21472;SDS011;10898;48.072;11.682;2023-11-18T06:21:35;4.05;;;3.35;;
21472;SDS011;10898;48.072;11.682;2023-11-18T06:23:37;3.55;;;3.25;;
21472;SDS011;10898;48.072;11.682;2023-11-18T06:25:39;3.42;;;3.13;;
21472;SDS011;10898;48.072;11.682;2023-11-18T06:27:42;3.75;;;3.08;;
21472;SDS011;10898;48.072;11.682;2023-11-18T06:29:47;3.40;;;3.10;;
21472;SDS011;10898;48.072;11.682;2023-11-18T06:31:50;3.38;;;3.08;;
21472;SDS011;10898;48.072;11.682;2023-11-18T06:33:52;4.30;;;3.90;;
21472;SDS011;10898;48.072;11.682;2023-11-18T06:35:54;3.63;;;3.33;;
21472;SDS011;10898;48.072;11.682;2023-11-18T06:37:57;4.10;;;3.17;;
21472;SDS011;10898;48.072;11.682;2023-11-18T06:39:59;2.83;;;2.53;;
21472;SDS011;10898;48.072;11.682;2023-11-18T06:42:01;3.20;;;2.90;;
21472;SDS011;10898;48.072;11.682;2023-11-18T06:44:06;3.20;;;2.90;;
21472;SDS011;10898;48.072;11.682;2023-11-18T06:46:13;3.78;;;3.25;;
21472;SDS011;10898;48.072;11.682;2023-11-18T06:48:15;3.83;;;3.27;;
21472;SDS011;10898;48.072;11.682;2023-11-18T06:50:21;2.95;;;2.75;;
21472;SDS011;10898;48.072;11.682;2023-11-18T06:52:25;3.10;;;2.90;;
21472;SDS011;10898;48.072;11.682;2023-11-18T06:54:27;3.40;;;3.20;;
21472;SDS011;10898;48.072;11.682;2023-11-18T06:56:29;3.00;;;2.80;;
21472;SDS011;10898;48.072;11.682;2023-11-18T06:58:31;3.13;;;2.92;;
21472;SDS011;10898;48.072;11.682;2023-11-18T07:00:33;3.30;;;3.00;;
21472;SDS011;10898;48.072;11.682;2023-11-18T07:02:36;3.80;;;3.50;;
21472;SDS011;10898;48.072;11.682;2023-11-18T07:04:39;4.15;;;3.75;;
21472;SDS011;10898;48.072;11.682;2023-11-18T07:06:41;3.80;;;3.35;;
21472;SDS011;10898;48.072;11.682;2023-11-18T07:08:44;3.55;;;3.25;;
21472;SDS011;10898;48.072;11.682;2023-11-18T07:10:46;3.63;;;3.33;;
21472;SDS011;10898;48.072;11.682;2023-11-18T07:12:49;3.40;;;3.10;;
21472;SDS011;10898;48.072;11.682;2023-11-18T07:14:51;3.30;;;2.90;;
21472;SDS011;10898;48.072;11.682;2023-11-18T07:16:55;3.35;;;3.05;;
21472;SDS011;10898;48.072;11.682;2023-11-18T07:18:57;3.73;;;3.03;;
21472;SDS011;10898;48.072;11.682;2023-11-18T07:20:59;3.00;;;2.80;;
21472;SDS011;10898;48.072;11.682;2023-11-18T07:23:00;3.13;;;2.83;;
21472;SDS011;10898;48.072;11.682;2023-11-18T07:25:02;3.03;;;2.75;;
21472;SDS011;10898;48.072;11.682;2023-11-18T07:27:05;3.42;;;3.13;;
21472;SDS011;10898;48.072;11.682;2023-11-18T07:29:07;3.65;;;3.35;;
21472;SDS011;10898;48.072;11.682;2023-11-18T07:31:09;3.15;;;2.85;;
21472;SDS011;10898;48.072;11.682;2023-11-18T07:33:11;2.85;;;2.63;;
21472;SDS011;10898;48.072;11.682;2023-11-18T07:35:13;3.23;;;2.77;;
21472;SDS011;10898;48.072;11.682;2023-11-18T07:37:14;4.22;;;3.80;;
21472;SDS011;10898;48.072;11.682;2023-11-18T07:39:17;3.35;;;3.05;;
21472;SDS011;10898;48.072;11.682;2023-11-18T07:41:26;4.05;;;3.67;;
21472;SDS011;10898;48.072;11.682;2023-11-18T07:43:33;3.88;;;2.72;;
21472;SDS011;10898;48.072;11.682;2023-11-18T07:45:35;3.58;;;3.28;;
21472;SDS011;10898;48.072;11.682;2023-11-18T07:47:41;3.05;;;2.80;;
21472;SDS011;10898;48.072;11.682;2023-11-18T07:49:42;4.53;;;3.90;;
21472;SDS011;10898;48.072;11.682;2023-11-18T07:51:46;6.00;;;4.53;;
21472;SDS011;10898;48.072;11.682;2023-11-18T07:53:48;3.60;;;3.30;;
21472;SDS011;10898;48.072;11.682;2023-11-18T07:55:50;2.85;;;2.65;;
21472;SDS011;10898;48.072;11.682;2023-11-18T07:57:52;3.28;;;3.00;;
21472;SDS011;10898;48.072;11.682;2023-11-18T07:59:54;3.37;;;3.07;;
21472;SDS011;10898;48.072;11.682;2023-11-18T08:01:55;3.80;;;3.50;;
21472;SDS011;10898;48.072;11.682;2023-11-18T08:03:57;2.95;;;2.75;;
21472;SDS011;10898;48.072;11.682;2023-11-18T08:05:59;3.00;;;2.70;;
21472;SDS011;10898;48.072;11.682;2023-11-18T08:08:03;2.75;;;2.55;;
21472;SDS011;10898;48.072;11.682;2023-11-18T08:10:05;2.33;;;2.13;;
21472;SDS011;10898;48.072;11.682;2023-11-18T08:14:10;2.97;;;2.78;;
21472;SDS011;10898;48.072;11.682;2023-11-18T08:16:12;2.97;;;2.78;;
21472;SDS011;10898;48.072;11.682;2023-11-18T08:18:16;3.03;;;2.78;;
21472;SDS011;10898;48.072;11.682;2023-11-18T08:20:17;3.57;;;3.17;;
21472;SDS011;10898;48.072;11.682;2023-11-18T08:22:22;4.15;;;3.28;;
21472;SDS011;10898;48.072;11.682;2023-11-18T08:24:24;3.30;;;3.05;;
21472;SDS011;10898;48.072;11.682;2023-11-18T08:26:26;3.37;;;3.07;;
21472;SDS011;10898;48.072;11.682;2023-11-18T08:28:28;2.97;;;2.78;;
21472;SDS011;10898;48.072;11.682;2023-11-18T08:30:29;3.57;;;3.27;;
21472;SDS011;10898;48.072;11.682;2023-11-18T08:32:31;3.30;;;3.00;;
21472;SDS011;10898;48.072;11.682;2023-11-18T08:34:33;3.38;;;3.08;;
21472;SDS011;10898;48.072;11.682;2023-11-18T08:36:37;3.58;;;3.28;;
21472;SDS011;10898;48.072;11.682;2023-11-18T08:38:38;3.00;;;2.70;;
21472;SDS011;10898;48.072;11.682;2023-11-18T08:40:41;3.30;;;3.00;;
21472;SDS011;10898;48.072;11.682;2023-11-18T08:44:52;3.83;;;2.95;;
21472;SDS011;10898;48.072;11.682;2023-11-18T08:46:54;3.10;;;2.80;;
21472;SDS011;10898;48.072;11.682;2023-11-18T08:48:59;3.70;;;3.40;;
21472;SDS011;10898;48.072;11.682;2023-11-18T08:51:07;3.50;;;3.20;;
21472;SDS011;10898;48.072;11.682;2023-11-18T08:53:13;3.35;;;3.08;;
21472;SDS011;10898;48.072;11.682;2023-11-18T08:55:19;3.03;;;2.83;;
21472;SDS011;10898;48.072;11.682;2023-11-18T08:57:22;3.25;;;2.97;;
21472;SDS011;10898;48.072;11.682;2023-11-18T08:59:27;3.55;;;3.20;;
21472;SDS011;10898;48.072;11.682;2023-11-18T09:01:28;3.17;;;2.80;;
21472;SDS011;10898;48.072;11.682;2023-11-18T09:03:33;2.50;;;2.30;;
21472;SDS011;10898;48.072;11.682;2023-11-18T09:05:38;2.70;;;2.50;;
21472;SDS011;10898;48.072;11.682;2023-11-18T09:07:40;3.50;;;3.20;;
21472;SDS011;10898;48.072;11.682;2023-11-18T09:09:44;3.15;;;2.40;;
21472;SDS011;10898;48.072;11.682;2023-11-18T09:11:46;2.30;;;2.10;;
21472;SDS011;10898;48.072;11.682;2023-11-18T09:13:50;3.67;;;3.00;;
21472;SDS011;10898;48.072;11.682;2023-11-18T09:15:56;3.30;;;2.80;;
21472;SDS011;10898;48.072;11.682;2023-11-18T09:18:01;2.80;;;2.60;;
21472;SDS011;10898;48.072;11.682;2023-11-18T09:20:04;2.42;;;2.22;;
21472;SDS011;10898;48.072;11.682;2023-11-18T09:24:08;2.47;;;2.30;;
21472;SDS011;10898;48.072;11.682;2023-11-18T09:26:13;2.65;;;2.45;;
21472;SDS011;10898;48.072;11.682;2023-11-18T09:30:18;3.88;;;3.13;;
21472;SDS011;10898;48.072;11.682;2023-11-18T09:32:23;2.72;;;2.40;;
21472;SDS011;10898;48.072;11.682;2023-11-18T09:34:27;3.30;;;2.72;;
21472;SDS011;10898;48.072;11.682;2023-11-18T09:36:34;3.15;;;2.85;;
21472;SDS011;10898;48.072;11.682;2023-11-18T09:38:40;2.70;;;2.50;;
21472;SDS011;10898;48.072;11.682;2023-11-18T09:40:42;3.20;;;2.90;;
21472;SDS011;10898;48.072;11.682;2023-11-18T09:42:47;3.28;;;2.53;;
21472;SDS011;10898;48.072;11.682;2023-11-18T09:46:53;3.83;;;2.35;;
21472;SDS011;10898;48.072;11.682;2023-11-18T09:51:23;3.97;;;3.50;;
21472;SDS011;10898;48.072;11.682;2023-11-18T09:53:31;3.47;;;3.17;;
21472;SDS011;10898;48.072;11.682;2023-11-18T09:55:59;4.38;;;3.92;;
21472;SDS011;10898;48.072;11.682;2023-11-18T09:58:16;3.35;;;3.05;;
21472;SDS011;10898;48.072;11.682;2023-11-18T10:00:25;2.45;;;2.25;;
21472;SDS011;10898;48.072;11.682;2023-11-18T10:02:33;2.42;;;2.22;;
21472;SDS011;10898;48.072;11.682;2023-11-18T10:04:39;2.28;;;2.15;;
21472;SDS011;10898;48.072;11.682;2023-11-18T10:06:41;2.10;;;1.90;;
21472;SDS011;10898;48.072;11.682;2023-11-18T10:08:46;2.65;;;2.45;;
21472;SDS011;10898;48.072;11.682;2023-11-18T10:10:47;2.03;;;1.93;;
21472;SDS011;10898;48.072;11.682;2023-11-18T10:12:50;2.22;;;2.05;;
21472;SDS011;10898;48.072;11.682;2023-11-18T10:14:59;2.13;;;2.00;;
21472;SDS011;10898;48.072;11.682;2023-11-18T10:17:05;1.88;;;1.77;;
21472;SDS011;10898;48.072;11.682;2023-11-18T10:19:10;1.77;;;1.67;;
21472;SDS011;10898;48.072;11.682;2023-11-18T10:23:19;2.38;;;2.03;;
21472;SDS011;10898;48.072;11.682;2023-11-18T10:25:23;1.90;;;1.80;;
21472;SDS011;10898;48.072;11.682;2023-11-18T10:27:29;3.00;;;1.70;;
21472;SDS011;10898;48.072;11.682;2023-11-18T10:29:31;1.65;;;1.55;;
21472;SDS011;10898;48.072;11.682;2023-11-18T10:31:33;1.70;;;1.60;;
21472;SDS011;10898;48.072;11.682;2023-11-18T10:33:39;1.52;;;1.42;;
21472;SDS011;10898;48.072;11.682;2023-11-18T10:35:48;1.38;;;1.23;;
21472;SDS011;10898;48.072;11.682;2023-11-18T10:37:56;1.45;;;1.35;;
21472;SDS011;10898;48.072;11.682;2023-11-18T10:40:03;1.92;;;1.75;;
21472;SDS011;10898;48.072;11.682;2023-11-18T10:42:06;1.88;;;1.40;;
21472;SDS011;10898;48.072;11.682;2023-11-18T10:44:09;1.58;;;1.48;;
21472;SDS011;10898;48.072;11.682;2023-11-18T10:46:16;1.80;;;1.15;;
21472;SDS011;10898;48.072;11.682;2023-11-18T10:48:18;1.30;;;1.23;;
21472;SDS011;10898;48.072;11.682;2023-11-18T10:50:21;1.35;;;1.25;;
21472;SDS011;10898;48.072;11.682;2023-11-18T10:52:26;1.63;;;1.52;;
21472;SDS011;10898;48.072;11.682;2023-11-18T10:54:36;2.10;;;1.85;;
21472;SDS011;10898;48.072;11.682;2023-11-18T10:56:39;1.30;;;1.20;;
21472;SDS011;10898;48.072;11.682;2023-11-18T10:58:50;1.10;;;1.10;;
21472;SDS011;10898;48.072;11.682;2023-11-18T11:00:52;1.67;;;1.58;;
21472;SDS011;10898;48.072;11.682;2023-11-18T11:02:58;4.60;;;1.23;;
21472;SDS011;10898;48.072;11.682;2023-11-18T11:05:00;1.35;;;1.25;;
21472;SDS011;10898;48.072;11.682;2023-11-18T11:07:02;1.30;;;1.30;;
21472;SDS011;10898;48.072;11.682;2023-11-18T11:09:05;1.23;;;1.13;;
21472;SDS011;10898;48.072;11.682;2023-11-18T11:11:16;2.42;;;1.38;;
21472;SDS011;10898;48.072;11.682;2023-11-18T11:13:23;1.60;;;1.50;;
21472;SDS011;10898;48.072;11.682;2023-11-18T11:15:26;0.90;;;0.90;;
21472;SDS011;10898;48.072;11.682;2023-11-18T11:17:45;1.25;;;1.15;;
21472;SDS011;10898;48.072;11.682;2023-11-18T11:22:19;1.13;;;1.13;;
21472;SDS011;10898;48.072;11.682;2023-11-18T11:24:29;1.23;;;1.10;;
21472;SDS011;10898;48.072;11.682;2023-11-18T11:33:26;1.65;;;1.00;;
21472;SDS011;10898;48.072;11.682;2023-11-18T11:35:42;1.20;;;1.10;;
21472;SDS011;10898;48.072;11.682;2023-11-18T11:37:49;1.40;;;1.15;;
21472;SDS011;10898;48.072;11.682;2023-11-18T11:39:54;1.58;;;1.33;;
21472;SDS011;10898;48.072;11.682;2023-11-18T11:41:59;1.45;;;1.35;;
21472;SDS011;10898;48.072;11.682;2023-11-18T11:46:07;1.33;;;1.23;;
21472;SDS011;10898;48.072;11.682;2023-11-18T11:48:12;1.00;;;1.00;;
21472;SDS011;10898;48.072;11.682;2023-11-18T11:50:29;1.02;;;1.00;;
21472;SDS011;10898;48.072;11.682;2023-11-18T11:52:34;1.10;;;1.10;;
21472;SDS011;10898;48.072;11.682;2023-11-18T11:54:48;0.90;;;0.90;;
21472;SDS011;10898;48.072;11.682;2023-11-18T11:56:57;1.00;;;1.00;;
21472;SDS011;10898;48.072;11.682;2023-11-18T11:59:02;1.00;;;1.00;;
21472;SDS011;10898;48.072;11.682;2023-11-18T12:03:38;1.40;;;1.30;;
21472;SDS011;10898;48.072;11.682;2023-11-18T12:07:49;7.70;;;0.98;;
21472;SDS011;10898;48.072;11.682;2023-11-18T12:09:51;1.20;;;1.08;;
21472;SDS011;10898;48.072;11.682;2023-11-18T12:11:59;1.10;;;1.00;;
21472;SDS011;10898;48.072;11.682;2023-11-18T12:16:58;1.25;;;1.08;;
21472;SDS011;10898;48.072;11.682;2023-11-18T12:21:55;1.75;;;1.00;;
21472;SDS011;10898;48.072;11.682;2023-11-18T12:24:15;0.80;;;0.80;;
21472;SDS011;10898;48.072;11.682;2023-11-18T12:26:39;0.90;;;0.90;;
21472;SDS011;10898;48.072;11.682;2023-11-18T12:28:41;0.85;;;0.85;;
21472;SDS011;10898;48.072;11.682;2023-11-18T12:30:47;1.17;;;1.17;;
21472;SDS011;10898;48.072;11.682;2023-11-18T12:33:05;1.00;;;1.00;;
21472;SDS011;10898;48.072;11.682;2023-11-18T12:35:10;1.13;;;1.03;;
21472;SDS011;10898;48.072;11.682;2023-11-18T12:39:58;1.10;;;1.00;;
21472;SDS011;10898;48.072;11.682;2023-11-18T12:42:55;1.17;;;1.10;;
21472;SDS011;10898;48.072;11.682;2023-11-18T12:47:45;0.90;;;0.90;;
21472;SDS011;10898;48.072;11.682;2023-11-18T12:49:50;1.25;;;0.95;;
21472;SDS011;10898;48.072;11.682;2023-11-18T12:51:56;0.98;;;0.95;;
21472;SDS011;10898;48.072;11.682;2023-11-18T12:53:58;1.00;;;1.00;;
21472;SDS011;10898;48.072;11.682;2023-11-18T12:56:01;1.85;;;1.00;;
21472;SDS011;10898;48.072;11.682;2023-11-18T12:58:03;1.10;;;1.10;;
21472;SDS011;10898;48.072;11.682;2023-11-18T13:00:07;0.80;;;0.80;;
21472;SDS011;10898;48.072;11.682;2023-11-18T13:02:12;1.05;;;0.95;;
21472;SDS011;10898;48.072;11.682;2023-11-18T13:04:19;1.00;;;1.00;;
21472;SDS011;10898;48.072;11.682;2023-11-18T13:06:21;0.90;;;0.90;;
21472;SDS011;10898;48.072;11.682;2023-11-18T13:08:28;0.90;;;0.90;;
21472;SDS011;10898;48.072;11.682;2023-11-18T13:10:30;2.17;;;1.20;;